Namao — CZ9742 — position and weather

sailwx.info

Track history (hours):
 
Tides and Currents Weather Stations Pressure Air Temp Water Temp Dewpoint Dewpoint Depression Visibility Wind Speed Wind Dir Waves Ship Positions

Oceanographic research ship Namao (Canada)

Last reported at 2019-Apr-22 11:00 UTC. Time now 2019-Sep-21 04:46 UTC.
Position N 50°36' W 096°54'.
Warning: this ship's position is months out of date.

Wind from 340 at 6 knots

Barometer 1023.5 mb
Air temperature 4.1 ° C
Dewpoint 4.0 ° C

Date/timePositionNaut miles runAvg speedWind from/ knotsBaromVisibWave heightAir tempDewpointWater temp
2019-Apr-22 11:00N 50°36' W 096°54'0 0.0 340 / 61023.5 4.1 4.0
2019-Apr-22 10:00N 50°36' W 096°54'0 0.0 360 / 81023.0 3.7 3.6
2019-Apr-22 09:00N 50°36' W 096°54'0 0.0 020 / 81022.8 4.0 3.9
2019-Apr-22 08:00N 50°36' W 096°54'0 0.0 360 / 101022.4 3.4 3.4
2019-Apr-22 07:00N 50°36' W 096°54'0 0.0 340 / 91021.9 4.0 3.9
2019-Apr-22 06:00N 50°36' W 096°54'0 0.0 350 / 71021.5 3.0 2.9
2019-Apr-22 05:00N 50°36' W 096°54'0 0.0 010 / 61020.7 5.1 2.3
2019-Apr-22 04:00N 50°36' W 096°54'0 0.0 020 / 81020.6 4.2 1.4
2019-Apr-22 03:00N 50°36' W 096°54'0 0.0 350 / 81020.0 7.1 2.6
2019-Apr-22 02:00N 50°36' W 096°54'0 0.0 360 / 71018.8 7.5 1.5
2019-Apr-22 01:00N 50°36' W 096°54'0 0.0 040 / 51018.5 4.9 1.5
2019-Apr-22 00:00N 50°36' W 096°54'0 0.0 360 / 41018.6 9.2 0.8
2019-Apr-21 23:00N 50°36' W 096°54'0 0.0 010 / 91018.0 4.2 0.6
2019-Apr-21 22:00N 50°36' W 096°54'0 0.0 010 / 81018.2 2.7 1.9
2019-Apr-21 21:00N 50°36' W 096°54'0 0.0 020 / 81018.5 4.4 1.4
2019-Apr-21 20:00N 50°36' W 096°54'0 0.0 010 / 101018.6 4.7 1.3
2019-Apr-21 19:00N 50°36' W 096°54'0 0.0 020 / 91018.8 3.5 1.6
2019-Apr-21 18:00N 50°36' W 096°54'0 0.0 010 / 91018.9 3.0 2.0
2019-Apr-21 17:00N 50°36' W 096°54'0 0.0 010 / 71018.8 2.1 2.0
2019-Apr-21 16:00N 50°36' W 096°54'0 0.0 010 / 111018.5 1.8 1.6
2019-Apr-21 15:00N 50°36' W 096°54'0 0.0 010 / 91017.9 2.0 1.3
2019-Apr-21 14:00N 50°36' W 096°54'0 0.0 010 / 41017.9 1.8 0.7
2019-Apr-21 13:00N 50°36' W 096°54'0 0.0 360 / 71017.2 0.8 0.6
2019-Apr-21 12:00N 50°36' W 096°54'0 0.0 010 / 91016.3 0.6 0.2
2019-Apr-21 11:00N 50°36' W 096°54'0 0.0 360 / 91015.7 1.1-0.1
2019-Apr-21 10:00N 50°36' W 096°54'0 0.0 360 / 91014.8 2.0-0.1
2019-Apr-21 09:00N 50°36' W 096°54'0 0.0 360 / 91014.3 3.4 0.1
2019-Apr-21 08:00N 50°36' W 096°54'0 0.0 360 / 101013.8 4.2 0.6
2019-Apr-21 07:00N 50°36' W 096°54'0 0.0 360 / 81013.5 3.4-0.4
2019-Apr-21 06:00N 50°36' W 096°54'0 0.0 360 / 111012.7 5.1-0.9
2019-Apr-21 05:00N 50°36' W 096°54'0 0.0 360 / 81012.1 7.4-2.2
2019-Apr-21 04:00N 50°36' W 096°54'0 0.0 350 / 51011.9 8.8-2.9
2019-Apr-21 03:00N 50°36' W 096°54'0 0.0 350 / 61011.6 7.6-2.6
2019-Apr-21 02:00N 50°36' W 096°54'0 0.0 010 / 41010.9 5.6-1.3
2019-Apr-21 01:00N 50°36' W 096°54'0 0.0 020 / 51010.1 7.4 0.6
2019-Apr-21 00:00N 50°36' W 096°54'0 0.0 030 / 71009.5 6.6 1.2
2019-Apr-20 23:00N 50°36' W 096°54'0 0.0 040 / 41008.8 6.0 1.4
2019-Apr-20 22:00N 50°36' W 096°54'0 0.0 040 / 71008.5 3.6 1.7
2019-Apr-20 21:00N 50°36' W 096°54'0 0.0 140 / 71007.7 5.1 2.0
2019-Apr-20 20:00N 50°36' W 096°54'0 0.0 150 / 41007.7 3.6 2.3
2019-Apr-20 19:00N 50°36' W 096°54'0 0.0 090 / 31007.4 4.4 2.3
2019-Apr-20 18:00N 50°36' W 096°54'0 0.0 100 / 61006.7 8.5 1.7
2019-Apr-20 16:00N 50°36' W 096°54'0 0.0 310 / 51006.2 10.1 1.5
2019-Apr-20 15:00N 50°36' W 096°54'0 0.0 290 / 61005.1 10.2 1.3
2019-Apr-20 14:00N 50°36' W 096°54'0 0.0 300 / 51005.0 8.9 1.3
2019-Apr-20 13:00N 50°36' W 096°54'0 0.0 290 / 41004.2 8.3 1.0
2019-Apr-20 12:00N 50°36' W 096°54'0 0.0 280 / 41003.6 8.1 0.7
2019-Apr-20 11:00N 50°36' W 096°54'0 0.0 300 / 31002.9 9.1 0.4
2019-Apr-20 10:00N 50°36' W 096°54'0 0.0 330 / 61002.3 8.9 0.3
2019-Apr-20 09:00N 50°36' W 096°54'0 0.0 320 / 51002.1 10.3 0.8
2019-Apr-20 08:00N 50°36' W 096°54'0 0.0 340 / 61001.0 9.3 0.1
2019-Apr-20 07:00N 50°36' W 096°54'0 0.0 330 / 51000.4 12.7 3.4
2019-Apr-20 06:00N 50°36' W 096°54'0 0.0 230 / 7999.6 11.3 6.7
2019-Apr-20 05:00N 50°36' W 096°54'0 0.0 200 / 17998.2 11.4 6.5
2019-Apr-20 04:00N 50°36' W 096°54'0 0.0 180 / 19998.1 12.0 5.6
2019-Apr-20 03:00N 50°36' W 096°54'0 0.0 170 / 19999.2 11.9 5.2
2019-Apr-20 02:00N 50°36' W 096°54'0 0.0 160 / 171000.0 10.7 3.9
2019-Apr-20 01:00N 50°36' W 096°54'0 0.0 160 / 151001.0 8.7 2.6
2019-Apr-20 00:00N 50°36' W 096°54'0 0.0 160 / 171001.9 7.9 2.4
2019-Apr-19 23:00N 50°36' W 096°54'0 0.0 160 / 181002.9 7.9 2.1
2019-Apr-19 22:00N 50°36' W 096°54'0 0.0 160 / 141003.5 7.2 2.2
2019-Apr-19 21:00N 50°36' W 096°54'0 0.0 150 / 141004.9 7.5 1.3
2019-Apr-19 20:00N 50°36' W 096°54'0 0.0 170 / 171005.9 13.6 0.8
2019-Apr-19 19:00N 50°36' W 096°54'0 0.0 160 / 151007.1 9.7 0.5
2019-Apr-19 18:00N 50°36' W 096°54'0 0.0 150 / 141008.1 9.0 1.2
2019-Apr-19 17:00N 50°36' W 096°54'0 0.0 150 / 111009.3 9.2 2.8
2019-Apr-19 16:00N 50°36' W 096°54'0 0.0 150 / 101010.0 7.8 3.2
2019-Apr-19 15:00N 50°36' W 096°54'0 0.0 180 / 81011.0 7.1 3.5
2019-Apr-19 14:00N 50°36' W 096°54'0 0.0 200 / 81011.8 5.8 2.8
2019-Apr-19 13:00N 50°36' W 096°54'0 0.0 200 / 71012.5 3.9 3.0
2019-Apr-19 12:00N 50°36' W 096°54'0 0.0 200 / 71012.4 2.3 2.2
2019-Apr-19 11:00N 50°36' W 096°54'0 0.0 180 / 71012.3 2.2 0.5
2019-Apr-19 10:00N 50°36' W 096°54'0 0.0 220 / 71012.8 5.0 0.4
2019-Apr-19 09:00N 50°36' W 096°54'0 0.0 220 / 71012.9 4.9 0.2
2019-Apr-19 08:00N 50°36' W 096°54'0 0.0 230 / 81013.3 5.4-0.0
2019-Apr-19 07:00N 50°36' W 096°54'0 0.0 230 / 71013.9 5.6-0.4
2019-Apr-19 06:00N 50°36' W 096°54'0 0.0 230 / 61014.2 6.8-1.1
2019-Apr-19 05:00N 50°36' W 096°54'0 0.0 210 / 51014.1 7.3-2.5
2019-Apr-19 04:00N 50°36' W 096°54'0 0.0 220 / 61014.4 8.3-2.0
2019-Apr-19 03:00N 50°36' W 096°54'0 0.0 220 / 51014.6 9.6-1.7
2019-Apr-19 02:00N 50°36' W 096°54'0 0.0 190 / 51014.5 9.5-3.1
2019-Apr-19 01:00N 50°36' W 096°54'0 0.0 180 / 41014.7 6.0-3.1
2019-Apr-19 00:00N 50°36' W 096°54'0 0.0 160 / 71014.9 7.3-3.0
2019-Apr-18 23:00N 50°36' W 096°54'0 0.0 150 / 91014.9 5.7-2.5
2019-Apr-18 22:00N 50°36' W 096°54'0 0.0 120 / 81015.2 9.6-2.9
2019-Apr-18 21:00N 50°36' W 096°54'0 0.0 130 / 51015.7 6.4-1.6
2019-Apr-18 20:00N 50°36' W 096°54'0 0.0 100 / 31016.2 6.4-0.4
2019-Apr-18 19:00N 50°36' W 096°54'0 0.0 080 / 41016.3 5.8-0.5
2019-Apr-18 18:00N 50°36' W 096°54'0 0.0 050 / 31016.4 3.8-1.0
2019-Apr-18 17:00N 50°36' W 096°54'0 0.0 060 / 41016.3 3.6-0.7
2019-Apr-18 16:00N 50°36' W 096°54'0 0.0 030 / 51015.8 2.7-0.9
2019-Apr-18 15:00N 50°36' W 096°54'0 0.0 030 / 51015.7 1.9-2.1
2019-Apr-18 14:00N 50°36' W 096°54'0 0.0 030 / 21015.3 4.2-2.7
2019-Apr-18 13:00N 50°36' W 096°54'0 0.0 310 / 31014.8 2.6-3.1
2019-Apr-18 12:00N 50°36' W 096°54'0 0.0 300 / 31014.0 0.6-3.5
2019-Apr-18 11:00N 50°36' W 096°54'0 0.0 290 / 21013.4 0.6-3.4
2019-Apr-18 10:00N 50°36' W 096°54'0 0.0 340 / 41013.0 2.4-3.3
2019-Apr-18 09:00N 50°36' W 096°54'0 0.0 340 / 41012.9 2.8-3.1
2019-Apr-18 08:00N 50°36' W 096°54'0 0.0 350 / 61013.1 3.3-2.7
2019-Apr-18 07:00N 50°36' W 096°54'0 0.0 350 / 71013.2 2.9-2.6
2019-Apr-18 06:00N 50°36' W 096°54'0 0.0 360 / 81012.9 2.9-2.3
2019-Apr-18 05:00N 50°36' W 096°54'0 0.0 360 / 71013.0 1.9-1.4
2019-Apr-18 04:00N 50°36' W 096°54'0 0.0 020 / 71012.5 2.7-0.8
2019-Apr-18 03:00N 50°36' W 096°54'0 0.0 010 / 71012.1 1.5-1.1
2019-Apr-18 02:00N 50°36' W 096°54'0 0.0 350 / 71011.5 7.1-2.9
2019-Apr-18 01:00N 50°36' W 096°54'0 0.0 350 / 81011.5 7.1-2.6
2019-Apr-18 00:00N 50°36' W 096°54'0 0.0 350 / 101011.8 8.0-1.8
2019-Apr-17 23:00N 50°36' W 096°54'0 0.0 360 / 101012.0 7.0-1.0
2019-Apr-17 22:00N 50°36' W 096°54'0 0.0 360 / 111012.3 5.9-0.4
2019-Apr-17 21:00N 50°36' W 096°54'0 0.0 010 / 111012.7 5.4-0.3
2019-Apr-17 20:00N 50°36' W 096°54'0 0.0 010 / 101013.3 5.0-0.2
2019-Apr-17 19:00N 50°36' W 096°54'0 0.0 360 / 81014.2 3.4 1.8
2019-Apr-17 18:00N 50°36' W 096°54'0 0.0 010 / 91015.0 2.2 2.1
2019-Apr-17 17:00N 50°36' W 096°54'0 0.0 010 / 81015.5 1.3 1.3
2019-Apr-17 16:00N 50°36' W 096°54'0 0.0 020 / 51015.9 1.1 1.1
2019-Apr-17 15:00N 50°36' W 096°54'0 0.0 090 / 21016.1 3.6 1.7
2019-Apr-17 14:00N 50°36' W 096°54'0 0.0 160 / 21016.7 2.1 1.8
2019-Apr-17 13:00N 50°36' W 096°54'0 0.0 1016.6 0.5 0.5
2019-Apr-17 11:00N 50°36' W 096°54'0 0.0 300 / 11016.8 0.4 0.4
2019-Apr-17 10:00N 50°36' W 096°54'0 0.0 280 / 21016.6 0.5 0.4
2019-Apr-17 09:00N 50°36' W 096°54'0 0.0 240 / 11016.7 1.0 0.9
2019-Apr-17 08:00N 50°36' W 096°54'0 0.0 310 / 21016.4 1.7 1.5
2019-Apr-17 07:00N 50°36' W 096°54'0 0.0 220 / 11016.4 1.8 1.6
2019-Apr-17 06:00N 50°36' W 096°54'0 0.0 360 / 41015.9 2.4 2.2
2019-Apr-17 05:00N 50°36' W 096°54'0 0.0 020 / 41015.5 1.8 1.7
2019-Apr-17 04:00N 50°36' W 096°54'0 0.0 360 / 51015.2 2.1 2.0
2019-Apr-17 03:00N 50°36' W 096°54'0 0.0 020 / 41015.3 1.8 1.7
2019-Apr-17 02:00N 50°36' W 096°54'0 0.0 350 / 61013.8 7.5 0.2
2019-Apr-17 01:00N 50°36' W 096°54'0 0.0 060 / 11013.1 4.7 0.3
2019-Apr-17 00:00N 50°36' W 096°54'0 0.0 030 / 31012.1 10.6 0.7
2019-Apr-16 23:00N 50°36' W 096°54'0 0.0 280 / 91011.4 13.2-0.8
2019-Apr-16 22:00N 50°36' W 096°54'0 0.0 260 / 81010.9 12.8-1.3
2019-Apr-16 21:00N 50°36' W 096°54'0 0.0 280 / 71010.7 12.1-0.4
2019-Apr-16 20:00N 50°36' W 096°54'0 0.0 270 / 81010.2 12.6-0.1
2019-Apr-16 19:00N 50°36' W 096°54'0 0.0 260 / 111010.1 11.8-0.7
2019-Apr-16 18:00N 50°36' W 096°54'0 0.0 270 / 101009.9 11.4 0.2
2019-Apr-16 17:00N 50°36' W 096°54'0 0.0 260 / 81009.5 10.8 1.3
2019-Apr-16 16:00N 50°36' W 096°54'0 0.0 250 / 71009.3 9.6 3.1
2019-Apr-16 15:00N 50°36' W 096°54'0 0.0 250 / 61008.9 8.0 4.6
2019-Apr-16 14:00N 50°36' W 096°54'0 0.0 250 / 61008.8 5.4 5.3
2019-Apr-16 13:00N 50°36' W 096°54'0 0.0 220 / 51008.4 2.5 2.8
2019-Apr-16 12:00N 50°36' W 096°54'0 0.0 220 / 51007.7 1.0 1.5
2019-Apr-16 11:00N 50°36' W 096°54'0 0.0 190 / 51007.2 0.2 0.7
2019-Apr-16 10:00N 50°36' W 096°54'0 0.0 220 / 41006.6 1.3 1.9
2019-Apr-16 09:00N 50°36' W 096°54'0 0.0 200 / 71005.9 1.7 2.2
2019-Apr-16 08:00N 50°36' W 096°54'0 0.0 200 / 61005.6 2.8 3.3
2019-Apr-16 07:00N 50°36' W 096°54'0 0.0 200 / 81005.4 3.4 3.9
2019-Apr-16 06:00N 50°36' W 096°54'0 0.0 190 / 71005.0 4.3 4.9
2019-Apr-16 05:00N 50°36' W 096°54'0 0.0 170 / 91005.1 2.0 2.5
2019-Apr-16 04:00N 50°36' W 096°54'0 0.0 170 / 71004.8 2.7 3.1
2019-Apr-16 03:00N 50°36' W 096°54'0 0.0 140 / 31004.1 3.1 3.3
2019-Apr-16 02:00N 50°36' W 096°54'0 0.0 180 / 51003.5 2.4 2.6
2019-Apr-16 01:00N 50°36' W 096°54'0 0.0 150 / 71003.5 2.9 3.0
2019-Apr-16 00:00N 50°36' W 096°54'0 0.0 150 / 81003.0 3.1 3.2
2019-Apr-15 23:00N 50°36' W 096°54'0 0.0 140 / 111002.6 4.1 4.1
2019-Apr-15 22:00N 50°36' W 096°54'0 0.0 150 / 121003.2 4.5 4.4
2019-Apr-15 21:00N 50°36' W 096°54'0 0.0 180 / 171003.1 5.6 5.3
2019-Apr-15 20:00N 50°36' W 096°54'0 0.0 150 / 131003.3 3.6 3.6
2019-Apr-15 19:00N 50°36' W 096°54'0 0.0 150 / 111003.6 1.9 2.0
2019-Apr-15 18:00N 50°36' W 096°54'0 0.0 140 / 141004.2 1.1 1.5
2019-Apr-15 17:00N 50°36' W 096°54'0 0.0 150 / 171004.3 0.5 1.1
2019-Apr-15 16:00N 50°36' W 096°54'0 0.0 150 / 181004.3 0.1 0.7
2019-Apr-15 15:00N 50°36' W 096°54'0 0.0 150 / 161004.5 -0.1 0.5
2019-Apr-15 14:00N 50°36' W 096°54'0 0.0 150 / 181004.9 -0.2 0.4
2019-Apr-15 13:00N 50°36' W 096°54'0 0.0 160 / 151005.1 -0.3 0.2
2019-Apr-15 12:00N 50°36' W 096°54'0 0.0 170 / 141005.4 -0.1 0.3
2019-Apr-15 11:00N 50°36' W 096°54'0 0.0 160 / 121005.3 0.8 0.8
2019-Apr-15 10:00N 50°36' W 096°54'0 0.0 150 / 131005.8 0.5 0.5
2019-Apr-15 09:00N 50°36' W 096°54'0 0.0 150 / 101006.4 0.8 0.8
2019-Apr-15 08:00N 50°36' W 096°54'0 0.0 140 / 121006.7 0.8 0.8
2019-Apr-15 07:00N 50°36' W 096°54'0 0.0 140 / 121007.2 1.1 1.1
2019-Apr-15 06:00N 50°36' W 096°54'0 0.0 160 / 91007.8 0.9 1.0
2019-Apr-15 05:00N 50°36' W 096°54'0 0.0 160 / 81008.1 0.4 0.5
2019-Apr-15 04:00N 50°36' W 096°54'0 0.0 160 / 71008.0 2.5-0.4
2019-Apr-15 03:00N 50°36' W 096°54'0 0.0 180 / 71008.2 4.2-0.8
2019-Apr-15 02:00N 50°36' W 096°54'0 0.0 170 / 91008.1 5.1-1.9
2019-Apr-15 01:00N 50°36' W 096°54'0 0.0 170 / 91008.3 4.1-2.9
2019-Apr-15 00:00N 50°36' W 096°54'0 0.0 160 / 111008.5 3.9-2.9
2019-Apr-14 23:00N 50°36' W 096°54'0 0.0 150 / 111008.8 4.4-3.3
2019-Apr-14 22:00N 50°36' W 096°54'0 0.0 140 / 141009.2 5.2-4.5
2019-Apr-14 21:00N 50°36' W 096°54'0 0.0 140 / 151009.9 5.0-4.5
2019-Apr-14 20:00N 50°36' W 096°54'0 0.0 140 / 161010.6 4.8-4.5
2019-Apr-14 19:00N 50°36' W 096°54'0 0.0 140 / 141011.5 4.4-3.4
2019-Apr-14 18:00N 50°36' W 096°54'0 0.0 140 / 161012.3 3.7-2.5
2019-Apr-14 17:00N 50°36' W 096°54'0 0.0 140 / 151012.8 3.3-1.9
2019-Apr-14 16:00N 50°36' W 096°54'0 0.0 140 / 141013.2 1.8-1.3
2019-Apr-14 15:00N 50°36' W 096°54'0 0.0 150 / 121013.6 -0.0-1.2
2019-Apr-14 14:00N 50°36' W 096°54'0 0.0 150 / 91014.3 -2.1-2.2
2019-Apr-14 13:00N 50°36' W 096°54'0 0.0 160 / 81014.5 -3.3-3.3
2019-Apr-14 12:00N 50°36' W 096°54'0 0.0 160 / 81014.6 -4.0-4.1
2019-Apr-14 11:00N 50°36' W 096°54'0 0.0 160 / 81015.0 -4.0-4.0
2019-Apr-14 10:00N 50°36' W 096°54'0 0.0 160 / 81015.1 -3.5-3.5
2019-Apr-14 09:00N 50°36' W 096°54'0 0.0 160 / 71015.1 -3.1-3.2
2019-Apr-14 08:00N 50°36' W 096°54'0 0.0 160 / 61015.5 -2.5-2.7
2019-Apr-14 07:00N 50°36' W 096°54'0 0.0 170 / 101015.6 0.7-2.6
2019-Apr-14 06:00N 50°36' W 096°54'0 0.0 170 / 91015.8 0.6-3.0
2019-Apr-14 05:00N 50°36' W 096°54'0 0.0 170 / 91015.9 1.0-3.8
2019-Apr-14 04:00N 50°36' W 096°54'0 0.0 160 / 81016.1 -1.3-4.2
2019-Apr-14 03:00N 50°36' W 096°54'0 0.0 170 / 61016.0 1.4-4.3
2019-Apr-14 02:00N 50°36' W 096°54'0 0.0 180 / 71016.2 2.1-5.3
2019-Apr-14 01:00N 50°36' W 096°54'0 0.0 170 / 71016.0 4.7-6.6
2019-Apr-14 00:00N 50°36' W 096°54'0 0.0 160 / 31016.4 2.0-3.3
2019-Apr-13 23:00N 50°36' W 096°54'0 0.0 100 / 91016.4 4.1-3.9
2019-Apr-13 22:00N 50°36' W 096°54'0 0.0 110 / 71016.7 3.5-3.4
2019-Apr-13 21:00N 50°36' W 096°54'0 0.0 110 / 61016.7 4.0-3.5
2019-Apr-13 20:00N 50°36' W 096°54'0 0.0 100 / 71017.3 3.3-4.5
2019-Apr-13 19:00N 50°36' W 096°54'0 0.0 140 / 91017.6 1.0-5.3
2019-Apr-13 18:00N 50°36' W 096°54'0 0.0 110 / 61017.5 1.4-3.5
2019-Apr-13 17:00N 50°36' W 096°54'0 0.0 110 / 61017.5 1.2-4.6
2019-Apr-13 16:00N 50°36' W 096°54'0 0.0 110 / 41017.0 1.7-4.2
2019-Apr-13 15:00N 50°36' W 096°54'0 0.0 070 / 51016.8 0.3-7.7
2019-Apr-13 14:00N 50°36' W 096°54'0 0.0 310 / 31016.4 -0.0-9.5
2019-Apr-13 13:00N 50°36' W 096°54'0 0.0 300 / 51015.7 -2.5-9.1
2019-Apr-13 12:00N 50°36' W 096°54'0 0.0 290 / 61015.0 -3.6-9.5
2019-Apr-13 11:00N 50°36' W 096°54'0 0.0 300 / 61014.3 -3.0-9.5
2019-Apr-13 10:00N 50°36' W 096°54'0 0.0 300 / 51013.5 -2.4-9.3
2019-Apr-13 09:00N 50°36' W 096°54'0 0.0 300 / 61012.7 -1.5-9.2
2019-Apr-13 08:00N 50°36' W 096°54'0 0.0 300 / 51012.1 -0.8-8.5
2019-Apr-13 07:00N 50°36' W 096°54'0 0.0 350 / 81011.7 0.1-7.8
2019-Apr-13 06:00N 50°36' W 096°54'0 0.0 360 / 111011.3 0.3-6.8
2019-Apr-13 05:00N 50°36' W 096°54'0 0.0 360 / 131010.9 -0.1-6.5
2019-Apr-13 04:00N 50°36' W 096°54'0 0.0 360 / 141010.6 0.3-6.8
2019-Apr-13 03:00N 50°36' W 096°54'0 0.0 350 / 121010.1 0.2-7.1
2019-Apr-13 02:00N 50°36' W 096°54'0 0.0 360 / 141009.7 0.4-6.1
2019-Apr-13 00:00N 50°36' W 096°54'0 0.0 360 / 121009.2 1.3-3.7
2019-Apr-12 23:00N 50°36' W 096°54'0 0.0 010 / 141008.6 1.4-2.6
2019-Apr-12 22:00N 50°36' W 096°54'0 0.0 010 / 181008.1 1.7-4.1
2019-Apr-12 21:00N 50°36' W 096°54'0 0.0 360 / 171008.2 1.7-2.1
2019-Apr-12 20:00N 50°36' W 096°54'0 0.0 010 / 231007.9 1.1-0.2
2019-Apr-12 19:00N 50°36' W 096°54'0 0.0 010 / 231008.4 0.2-0.3
2019-Apr-12 17:00N 50°36' W 096°54'0 0.0 010 / 231009.6 -0.6-0.6
2019-Apr-12 16:00N 50°36' W 096°54'0 0.0 020 / 231010.3 -0.8-2.3
2019-Apr-12 15:00N 50°36' W 096°54'0 0.0 010 / 211010.5 -1.3-4.8
2019-Apr-12 14:00N 50°36' W 096°54'0 0.0 360 / 171011.1 -1.7-5.1
2019-Apr-12 13:00N 50°36' W 096°54'0 0.0 010 / 181011.5 -1.6-4.9
2019-Apr-12 12:00N 50°36' W 096°54'0 0.0 010 / 171012.2 -1.5-4.0
2019-Apr-12 11:00N 50°36' W 096°54'   010 / 161012.3 -1.2-4.1
Track history (hours):
 
Tides and Currents Weather Stations Pressure Air Temp Water Temp Dewpoint Dewpoint Depression Visibility Wind Speed Wind Dir Waves Ship Positions

Oceanographic research ship Namao (Canada)

Last reported at 2019-Apr-22 11:00 UTC. Time now 2019-Sep-21 04:47 UTC.
Position N 50°36' W 096°54'.
Warning: this ship's position is months out of date.

Wind from 340 at 6 knots

Barometer 1023.5 mb
Air temperature 4.1 ° C
Dewpoint 4.0 ° C

Date/timePositionNaut miles runAvg speedWind from/ knotsBaromVisibWave heightAir tempDewpointWater temp
2019-Apr-22 11:00N 50°36' W 096°54'0 0.0 340 / 61023.5 4.1 4.0
2019-Apr-22 10:00N 50°36' W 096°54'0 0.0 360 / 81023.0 3.7 3.6
2019-Apr-22 09:00N 50°36' W 096°54'0 0.0 020 / 81022.8 4.0 3.9
2019-Apr-22 08:00N 50°36' W 096°54'0 0.0 360 / 101022.4 3.4 3.4
2019-Apr-22 07:00N 50°36' W 096°54'0 0.0 340 / 91021.9 4.0 3.9
2019-Apr-22 06:00N 50°36' W 096°54'0 0.0 350 / 71021.5 3.0 2.9
2019-Apr-22 05:00N 50°36' W 096°54'0 0.0 010 / 61020.7 5.1 2.3
2019-Apr-22 04:00N 50°36' W 096°54'0 0.0 020 / 81020.6 4.2 1.4
2019-Apr-22 03:00N 50°36' W 096°54'0 0.0 350 / 81020.0 7.1 2.6
2019-Apr-22 02:00N 50°36' W 096°54'0 0.0 360 / 71018.8 7.5 1.5
2019-Apr-22 01:00N 50°36' W 096°54'0 0.0 040 / 51018.5 4.9 1.5
2019-Apr-22 00:00N 50°36' W 096°54'0 0.0 360 / 41018.6 9.2 0.8
2019-Apr-21 23:00N 50°36' W 096°54'0 0.0 010 / 91018.0 4.2 0.6
2019-Apr-21 22:00N 50°36' W 096°54'0 0.0 010 / 81018.2 2.7 1.9
2019-Apr-21 21:00N 50°36' W 096°54'0 0.0 020 / 81018.5 4.4 1.4
2019-Apr-21 20:00N 50°36' W 096°54'0 0.0 010 / 101018.6 4.7 1.3
2019-Apr-21 19:00N 50°36' W 096°54'0 0.0 020 / 91018.8 3.5 1.6
2019-Apr-21 18:00N 50°36' W 096°54'0 0.0 010 / 91018.9 3.0 2.0
2019-Apr-21 17:00N 50°36' W 096°54'0 0.0 010 / 71018.8 2.1 2.0
2019-Apr-21 16:00N 50°36' W 096°54'0 0.0 010 / 111018.5 1.8 1.6
2019-Apr-21 15:00N 50°36' W 096°54'0 0.0 010 / 91017.9 2.0 1.3
2019-Apr-21 14:00N 50°36' W 096°54'0 0.0 010 / 41017.9 1.8 0.7
2019-Apr-21 13:00N 50°36' W 096°54'0 0.0 360 / 71017.2 0.8 0.6
2019-Apr-21 12:00N 50°36' W 096°54'0 0.0 010 / 91016.3 0.6 0.2
2019-Apr-21 11:00N 50°36' W 096°54'0 0.0 360 / 91015.7 1.1-0.1
2019-Apr-21 10:00N 50°36' W 096°54'0 0.0 360 / 91014.8 2.0-0.1
2019-Apr-21 09:00N 50°36' W 096°54'0 0.0 360 / 91014.3 3.4 0.1
2019-Apr-21 08:00N 50°36' W 096°54'0 0.0 360 / 101013.8 4.2 0.6
2019-Apr-21 07:00N 50°36' W 096°54'0 0.0 360 / 81013.5 3.4-0.4
2019-Apr-21 06:00N 50°36' W 096°54'0 0.0 360 / 111012.7 5.1-0.9
2019-Apr-21 05:00N 50°36' W 096°54'0 0.0 360 / 81012.1 7.4-2.2
2019-Apr-21 04:00N 50°36' W 096°54'0 0.0 350 / 51011.9 8.8-2.9
2019-Apr-21 03:00N 50°36' W 096°54'0 0.0 350 / 61011.6 7.6-2.6
2019-Apr-21 02:00N 50°36' W 096°54'0 0.0 010 / 41010.9 5.6-1.3
2019-Apr-21 01:00N 50°36' W 096°54'0 0.0 020 / 51010.1 7.4 0.6
2019-Apr-21 00:00N 50°36' W 096°54'0 0.0 030 / 71009.5 6.6 1.2
2019-Apr-20 23:00N 50°36' W 096°54'0 0.0 040 / 41008.8 6.0 1.4
2019-Apr-20 22:00N 50°36' W 096°54'0 0.0 040 / 71008.5 3.6 1.7
2019-Apr-20 21:00N 50°36' W 096°54'0 0.0 140 / 71007.7 5.1 2.0
2019-Apr-20 20:00N 50°36' W 096°54'0 0.0 150 / 41007.7 3.6 2.3
2019-Apr-20 19:00N 50°36' W 096°54'0 0.0 090 / 31007.4 4.4 2.3
2019-Apr-20 18:00N 50°36' W 096°54'0 0.0 100 / 61006.7 8.5 1.7
2019-Apr-20 16:00N 50°36' W 096°54'0 0.0 310 / 51006.2 10.1 1.5
2019-Apr-20 15:00N 50°36' W 096°54'0 0.0 290 / 61005.1 10.2 1.3
2019-Apr-20 14:00N 50°36' W 096°54'0 0.0 300 / 51005.0 8.9 1.3
2019-Apr-20 13:00N 50°36' W 096°54'0 0.0 290 / 41004.2 8.3 1.0
2019-Apr-20 12:00N 50°36' W 096°54'0 0.0 280 / 41003.6 8.1 0.7
2019-Apr-20 11:00N 50°36' W 096°54'0 0.0 300 / 31002.9 9.1 0.4
2019-Apr-20 10:00N 50°36' W 096°54'0 0.0 330 / 61002.3 8.9 0.3
2019-Apr-20 09:00N 50°36' W 096°54'0 0.0 320 / 51002.1 10.3 0.8
2019-Apr-20 08:00N 50°36' W 096°54'0 0.0 340 / 61001.0 9.3 0.1
2019-Apr-20 07:00N 50°36' W 096°54'0 0.0 330 / 51000.4 12.7 3.4
2019-Apr-20 06:00N 50°36' W 096°54'0 0.0 230 / 7999.6 11.3 6.7
2019-Apr-20 05:00N 50°36' W 096°54'0 0.0 200 / 17998.2 11.4 6.5
2019-Apr-20 04:00N 50°36' W 096°54'0 0.0 180 / 19998.1 12.0 5.6
2019-Apr-20 03:00N 50°36' W 096°54'0 0.0 170 / 19999.2 11.9 5.2
2019-Apr-20 02:00N 50°36' W 096°54'0 0.0 160 / 171000.0 10.7 3.9
2019-Apr-20 01:00N 50°36' W 096°54'0 0.0 160 / 151001.0 8.7 2.6
2019-Apr-20 00:00N 50°36' W 096°54'0 0.0 160 / 171001.9 7.9 2.4
2019-Apr-19 23:00N 50°36' W 096°54'0 0.0 160 / 181002.9 7.9 2.1
2019-Apr-19 22:00N 50°36' W 096°54'0 0.0 160 / 141003.5 7.2 2.2
2019-Apr-19 21:00N 50°36' W 096°54'0 0.0 150 / 141004.9 7.5 1.3
2019-Apr-19 20:00N 50°36' W 096°54'0 0.0 170 / 171005.9 13.6 0.8
2019-Apr-19 19:00N 50°36' W 096°54'0 0.0 160 / 151007.1 9.7 0.5
2019-Apr-19 18:00N 50°36' W 096°54'0 0.0 150 / 141008.1 9.0 1.2
2019-Apr-19 17:00N 50°36' W 096°54'0 0.0 150 / 111009.3 9.2 2.8
2019-Apr-19 16:00N 50°36' W 096°54'0 0.0 150 / 101010.0 7.8 3.2
2019-Apr-19 15:00N 50°36' W 096°54'0 0.0 180 / 81011.0 7.1 3.5
2019-Apr-19 14:00N 50°36' W 096°54'0 0.0 200 / 81011.8 5.8 2.8
2019-Apr-19 13:00N 50°36' W 096°54'0 0.0 200 / 71012.5 3.9 3.0
2019-Apr-19 12:00N 50°36' W 096°54'0 0.0 200 / 71012.4 2.3 2.2
2019-Apr-19 11:00N 50°36' W 096°54'0 0.0 180 / 71012.3 2.2 0.5
2019-Apr-19 10:00N 50°36' W 096°54'0 0.0 220 / 71012.8 5.0 0.4
2019-Apr-19 09:00N 50°36' W 096°54'0 0.0 220 / 71012.9 4.9 0.2
2019-Apr-19 08:00N 50°36' W 096°54'0 0.0 230 / 81013.3 5.4-0.0
2019-Apr-19 07:00N 50°36' W 096°54'0 0.0 230 / 71013.9 5.6-0.4
2019-Apr-19 06:00N 50°36' W 096°54'0 0.0 230 / 61014.2 6.8-1.1
2019-Apr-19 05:00N 50°36' W 096°54'0 0.0 210 / 51014.1 7.3-2.5
2019-Apr-19 04:00N 50°36' W 096°54'0 0.0 220 / 61014.4 8.3-2.0
2019-Apr-19 03:00N 50°36' W 096°54'0 0.0 220 / 51014.6 9.6-1.7
2019-Apr-19 02:00N 50°36' W 096°54'0 0.0 190 / 51014.5 9.5-3.1
2019-Apr-19 01:00N 50°36' W 096°54'0 0.0 180 / 41014.7 6.0-3.1
2019-Apr-19 00:00N 50°36' W 096°54'0 0.0 160 / 71014.9 7.3-3.0
2019-Apr-18 23:00N 50°36' W 096°54'0 0.0 150 / 91014.9 5.7-2.5
2019-Apr-18 22:00N 50°36' W 096°54'0 0.0 120 / 81015.2 9.6-2.9
2019-Apr-18 21:00N 50°36' W 096°54'0 0.0 130 / 51015.7 6.4-1.6
2019-Apr-18 20:00N 50°36' W 096°54'0 0.0 100 / 31016.2 6.4-0.4
2019-Apr-18 19:00N 50°36' W 096°54'0 0.0 080 / 41016.3 5.8-0.5
2019-Apr-18 18:00N 50°36' W 096°54'0 0.0 050 / 31016.4 3.8-1.0
2019-Apr-18 17:00N 50°36' W 096°54'0 0.0 060 / 41016.3 3.6-0.7
2019-Apr-18 16:00N 50°36' W 096°54'0 0.0 030 / 51015.8 2.7-0.9
2019-Apr-18 15:00N 50°36' W 096°54'0 0.0 030 / 51015.7 1.9-2.1
2019-Apr-18 14:00N 50°36' W 096°54'0 0.0 030 / 21015.3 4.2-2.7
2019-Apr-18 13:00N 50°36' W 096°54'0 0.0 310 / 31014.8 2.6-3.1
2019-Apr-18 12:00N 50°36' W 096°54'0 0.0 300 / 31014.0 0.6-3.5
2019-Apr-18 11:00N 50°36' W 096°54'0 0.0 290 / 21013.4 0.6-3.4
2019-Apr-18 10:00N 50°36' W 096°54'0 0.0 340 / 41013.0 2.4-3.3
2019-Apr-18 09:00N 50°36' W 096°54'0 0.0 340 / 41012.9 2.8-3.1
2019-Apr-18 08:00N 50°36' W 096°54'0 0.0 350 / 61013.1 3.3-2.7
2019-Apr-18 07:00N 50°36' W 096°54'0 0.0 350 / 71013.2 2.9-2.6
2019-Apr-18 06:00N 50°36' W 096°54'0 0.0 360 / 81012.9 2.9-2.3
2019-Apr-18 05:00N 50°36' W 096°54'0 0.0 360 / 71013.0 1.9-1.4
2019-Apr-18 04:00N 50°36' W 096°54'0 0.0 020 / 71012.5 2.7-0.8
2019-Apr-18 03:00N 50°36' W 096°54'0 0.0 010 / 71012.1 1.5-1.1
2019-Apr-18 02:00N 50°36' W 096°54'0 0.0 350 / 71011.5 7.1-2.9
2019-Apr-18 01:00N 50°36' W 096°54'0 0.0 350 / 81011.5 7.1-2.6
2019-Apr-18 00:00N 50°36' W 096°54'0 0.0 350 / 101011.8 8.0-1.8
2019-Apr-17 23:00N 50°36' W 096°54'0 0.0 360 / 101012.0 7.0-1.0
2019-Apr-17 22:00N 50°36' W 096°54'0 0.0 360 / 111012.3 5.9-0.4
2019-Apr-17 21:00N 50°36' W 096°54'0 0.0 010 / 111012.7 5.4-0.3
2019-Apr-17 20:00N 50°36' W 096°54'0 0.0 010 / 101013.3 5.0-0.2
2019-Apr-17 19:00N 50°36' W 096°54'0 0.0 360 / 81014.2 3.4 1.8
2019-Apr-17 18:00N 50°36' W 096°54'0 0.0 010 / 91015.0 2.2 2.1
2019-Apr-17 17:00N 50°36' W 096°54'0 0.0 010 / 81015.5 1.3 1.3
2019-Apr-17 16:00N 50°36' W 096°54'0 0.0 020 / 51015.9 1.1 1.1
2019-Apr-17 15:00N 50°36' W 096°54'0 0.0 090 / 21016.1 3.6 1.7
2019-Apr-17 14:00N 50°36' W 096°54'0 0.0 160 / 21016.7 2.1 1.8
2019-Apr-17 13:00N 50°36' W 096°54'0 0.0 1016.6 0.5 0.5
2019-Apr-17 11:00N 50°36' W 096°54'0 0.0 300 / 11016.8 0.4 0.4
2019-Apr-17 10:00N 50°36' W 096°54'0 0.0 280 / 21016.6 0.5 0.4
2019-Apr-17 09:00N 50°36' W 096°54'0 0.0 240 / 11016.7 1.0 0.9
2019-Apr-17 08:00N 50°36' W 096°54'0 0.0 310 / 21016.4 1.7 1.5
2019-Apr-17 07:00N 50°36' W 096°54'0 0.0 220 / 11016.4 1.8 1.6
2019-Apr-17 06:00N 50°36' W 096°54'0 0.0 360 / 41015.9 2.4 2.2
2019-Apr-17 05:00N 50°36' W 096°54'0 0.0 020 / 41015.5 1.8 1.7
2019-Apr-17 04:00N 50°36' W 096°54'0 0.0 360 / 51015.2 2.1 2.0
2019-Apr-17 03:00N 50°36' W 096°54'0 0.0 020 / 41015.3 1.8 1.7
2019-Apr-17 02:00N 50°36' W 096°54'0 0.0 350 / 61013.8 7.5 0.2
2019-Apr-17 01:00N 50°36' W 096°54'0 0.0 060 / 11013.1 4.7 0.3
2019-Apr-17 00:00N 50°36' W 096°54'0 0.0 030 / 31012.1 10.6 0.7
2019-Apr-16 23:00N 50°36' W 096°54'0 0.0 280 / 91011.4 13.2-0.8
2019-Apr-16 22:00N 50°36' W 096°54'0 0.0 260 / 81010.9 12.8-1.3
2019-Apr-16 21:00N 50°36' W 096°54'0 0.0 280 / 71010.7 12.1-0.4
2019-Apr-16 20:00N 50°36' W 096°54'0 0.0 270 / 81010.2 12.6-0.1
2019-Apr-16 19:00N 50°36' W 096°54'0 0.0 260 / 111010.1 11.8-0.7
2019-Apr-16 18:00N 50°36' W 096°54'0 0.0 270 / 101009.9 11.4 0.2
2019-Apr-16 17:00N 50°36' W 096°54'0 0.0 260 / 81009.5 10.8 1.3
2019-Apr-16 16:00N 50°36' W 096°54'0 0.0 250 / 71009.3 9.6 3.1
2019-Apr-16 15:00N 50°36' W 096°54'0 0.0 250 / 61008.9 8.0 4.6
2019-Apr-16 14:00N 50°36' W 096°54'0 0.0 250 / 61008.8 5.4 5.3
2019-Apr-16 13:00N 50°36' W 096°54'0 0.0 220 / 51008.4 2.5 2.8
2019-Apr-16 12:00N 50°36' W 096°54'0 0.0 220 / 51007.7 1.0 1.5
2019-Apr-16 11:00N 50°36' W 096°54'0 0.0 190 / 51007.2 0.2 0.7
2019-Apr-16 10:00N 50°36' W 096°54'0 0.0 220 / 41006.6 1.3 1.9
2019-Apr-16 09:00N 50°36' W 096°54'0 0.0 200 / 71005.9 1.7 2.2
2019-Apr-16 08:00N 50°36' W 096°54'0 0.0 200 / 61005.6 2.8 3.3
2019-Apr-16 07:00N 50°36' W 096°54'0 0.0 200 / 81005.4 3.4 3.9
2019-Apr-16 06:00N 50°36' W 096°54'0 0.0 190 / 71005.0 4.3 4.9
2019-Apr-16 05:00N 50°36' W 096°54'0 0.0 170 / 91005.1 2.0 2.5
2019-Apr-16 04:00N 50°36' W 096°54'0 0.0 170 / 71004.8 2.7 3.1
2019-Apr-16 03:00N 50°36' W 096°54'0 0.0 140 / 31004.1 3.1 3.3
2019-Apr-16 02:00N 50°36' W 096°54'0 0.0 180 / 51003.5 2.4 2.6
2019-Apr-16 01:00N 50°36' W 096°54'0 0.0 150 / 71003.5 2.9 3.0
2019-Apr-16 00:00N 50°36' W 096°54'0 0.0 150 / 81003.0 3.1 3.2
2019-Apr-15 23:00N 50°36' W 096°54'0 0.0 140 / 111002.6 4.1 4.1
2019-Apr-15 22:00N 50°36' W 096°54'0 0.0 150 / 121003.2 4.5 4.4
2019-Apr-15 21:00N 50°36' W 096°54'0 0.0 180 / 171003.1 5.6 5.3
2019-Apr-15 20:00N 50°36' W 096°54'0 0.0 150 / 131003.3 3.6 3.6
2019-Apr-15 19:00N 50°36' W 096°54'0 0.0 150 / 111003.6 1.9 2.0
2019-Apr-15 18:00N 50°36' W 096°54'0 0.0 140 / 141004.2 1.1 1.5
2019-Apr-15 17:00N 50°36' W 096°54'0 0.0 150 / 171004.3 0.5 1.1
2019-Apr-15 16:00N 50°36' W 096°54'0 0.0 150 / 181004.3 0.1 0.7
2019-Apr-15 15:00N 50°36' W 096°54'0 0.0 150 / 161004.5 -0.1 0.5
2019-Apr-15 14:00N 50°36' W 096°54'0 0.0 150 / 181004.9 -0.2 0.4
2019-Apr-15 13:00N 50°36' W 096°54'0 0.0 160 / 151005.1 -0.3 0.2
2019-Apr-15 12:00N 50°36' W 096°54'0 0.0 170 / 141005.4 -0.1 0.3
2019-Apr-15 11:00N 50°36' W 096°54'0 0.0 160 / 121005.3 0.8 0.8
2019-Apr-15 10:00N 50°36' W 096°54'0 0.0 150 / 131005.8 0.5 0.5
2019-Apr-15 09:00N 50°36' W 096°54'0 0.0 150 / 101006.4 0.8 0.8
2019-Apr-15 08:00N 50°36' W 096°54'0 0.0 140 / 121006.7 0.8 0.8
2019-Apr-15 07:00N 50°36' W 096°54'0 0.0 140 / 121007.2 1.1 1.1
2019-Apr-15 06:00N 50°36' W 096°54'0 0.0 160 / 91007.8 0.9 1.0
2019-Apr-15 05:00N 50°36' W 096°54'0 0.0 160 / 81008.1 0.4 0.5
2019-Apr-15 04:00N 50°36' W 096°54'0 0.0 160 / 71008.0 2.5-0.4
2019-Apr-15 03:00N 50°36' W 096°54'0 0.0 180 / 71008.2 4.2-0.8
2019-Apr-15 02:00N 50°36' W 096°54'0 0.0 170 / 91008.1 5.1-1.9
2019-Apr-15 01:00N 50°36' W 096°54'0 0.0 170 / 91008.3 4.1-2.9
2019-Apr-15 00:00N 50°36' W 096°54'0 0.0 160 / 111008.5 3.9-2.9
2019-Apr-14 23:00N 50°36' W 096°54'0 0.0 150 / 111008.8 4.4-3.3
2019-Apr-14 22:00N 50°36' W 096°54'0 0.0 140 / 141009.2 5.2-4.5
2019-Apr-14 21:00N 50°36' W 096°54'0 0.0 140 / 151009.9 5.0-4.5
2019-Apr-14 20:00N 50°36' W 096°54'0 0.0 140 / 161010.6 4.8-4.5
2019-Apr-14 19:00N 50°36' W 096°54'0 0.0 140 / 141011.5 4.4-3.4
2019-Apr-14 18:00N 50°36' W 096°54'0 0.0 140 / 161012.3 3.7-2.5
2019-Apr-14 17:00N 50°36' W 096°54'0 0.0 140 / 151012.8 3.3-1.9
2019-Apr-14 16:00N 50°36' W 096°54'0 0.0 140 / 141013.2 1.8-1.3
2019-Apr-14 15:00N 50°36' W 096°54'0 0.0 150 / 121013.6 -0.0-1.2
2019-Apr-14 14:00N 50°36' W 096°54'0 0.0 150 / 91014.3 -2.1-2.2
2019-Apr-14 13:00N 50°36' W 096°54'0 0.0 160 / 81014.5 -3.3-3.3
2019-Apr-14 12:00N 50°36' W 096°54'0 0.0 160 / 81014.6 -4.0-4.1
2019-Apr-14 11:00N 50°36' W 096°54'0 0.0 160 / 81015.0 -4.0-4.0
2019-Apr-14 10:00N 50°36' W 096°54'0 0.0 160 / 81015.1 -3.5-3.5
2019-Apr-14 09:00N 50°36' W 096°54'0 0.0 160 / 71015.1 -3.1-3.2
2019-Apr-14 08:00N 50°36' W 096°54'0 0.0 160 / 61015.5 -2.5-2.7
2019-Apr-14 07:00N 50°36' W 096°54'0 0.0 170 / 101015.6 0.7-2.6
2019-Apr-14 06:00N 50°36' W 096°54'0 0.0 170 / 91015.8 0.6-3.0
2019-Apr-14 05:00N 50°36' W 096°54'0 0.0 170 / 91015.9 1.0-3.8
2019-Apr-14 04:00N 50°36' W 096°54'0 0.0 160 / 81016.1 -1.3-4.2
2019-Apr-14 03:00N 50°36' W 096°54'0 0.0 170 / 61016.0 1.4-4.3
2019-Apr-14 02:00N 50°36' W 096°54'0 0.0 180 / 71016.2 2.1-5.3
2019-Apr-14 01:00N 50°36' W 096°54'0 0.0 170 / 71016.0 4.7-6.6
2019-Apr-14 00:00N 50°36' W 096°54'0 0.0 160 / 31016.4 2.0-3.3
2019-Apr-13 23:00N 50°36' W 096°54'0 0.0 100 / 91016.4 4.1-3.9
2019-Apr-13 22:00N 50°36' W 096°54'0 0.0 110 / 71016.7 3.5-3.4
2019-Apr-13 21:00N 50°36' W 096°54'0 0.0 110 / 61016.7 4.0-3.5
2019-Apr-13 20:00N 50°36' W 096°54'0 0.0 100 / 71017.3 3.3-4.5
2019-Apr-13 19:00N 50°36' W 096°54'0 0.0 140 / 91017.6 1.0-5.3
2019-Apr-13 18:00N 50°36' W 096°54'0 0.0 110 / 61017.5 1.4-3.5
2019-Apr-13 17:00N 50°36' W 096°54'0 0.0 110 / 61017.5 1.2-4.6
2019-Apr-13 16:00N 50°36' W 096°54'0 0.0 110 / 41017.0 1.7-4.2
2019-Apr-13 15:00N 50°36' W 096°54'0 0.0 070 / 51016.8 0.3-7.7
2019-Apr-13 14:00N 50°36' W 096°54'0 0.0 310 / 31016.4 -0.0-9.5
2019-Apr-13 13:00N 50°36' W 096°54'0 0.0 300 / 51015.7 -2.5-9.1
2019-Apr-13 12:00N 50°36' W 096°54'0 0.0 290 / 61015.0 -3.6-9.5
2019-Apr-13 11:00N 50°36' W 096°54'0 0.0 300 / 61014.3 -3.0-9.5
2019-Apr-13 10:00N 50°36' W 096°54'0 0.0 300 / 51013.5 -2.4-9.3
2019-Apr-13 09:00N 50°36' W 096°54'0 0.0 300 / 61012.7 -1.5-9.2
2019-Apr-13 08:00N 50°36' W 096°54'0 0.0 300 / 51012.1 -0.8-8.5
2019-Apr-13 07:00N 50°36' W 096°54'0 0.0 350 / 81011.7 0.1-7.8
2019-Apr-13 06:00N 50°36' W 096°54'0 0.0 360 / 111011.3 0.3-6.8
2019-Apr-13 05:00N 50°36' W 096°54'0 0.0 360 / 131010.9 -0.1-6.5
2019-Apr-13 04:00N 50°36' W 096°54'0 0.0 360 / 141010.6 0.3-6.8
2019-Apr-13 03:00N 50°36' W 096°54'0 0.0 350 / 121010.1 0.2-7.1
2019-Apr-13 02:00N 50°36' W 096°54'0 0.0 360 / 141009.7 0.4-6.1
2019-Apr-13 00:00N 50°36' W 096°54'0 0.0 360 / 121009.2 1.3-3.7
2019-Apr-12 23:00N 50°36' W 096°54'0 0.0 010 / 141008.6 1.4-2.6
2019-Apr-12 22:00N 50°36' W 096°54'0 0.0 010 / 181008.1 1.7-4.1
2019-Apr-12 21:00N 50°36' W 096°54'0 0.0 360 / 171008.2 1.7-2.1
2019-Apr-12 20:00N 50°36' W 096°54'0 0.0 010 / 231007.9 1.1-0.2
2019-Apr-12 19:00N 50°36' W 096°54'0 0.0 010 / 231008.4 0.2-0.3
2019-Apr-12 17:00N 50°36' W 096°54'0 0.0 010 / 231009.6 -0.6-0.6
2019-Apr-12 16:00N 50°36' W 096°54'0 0.0 020 / 231010.3 -0.8-2.3
2019-Apr-12 15:00N 50°36' W 096°54'0 0.0 010 / 211010.5 -1.3-4.8
2019-Apr-12 14:00N 50°36' W 096°54'0 0.0 360 / 171011.1 -1.7-5.1
2019-Apr-12 13:00N 50°36' W 096°54'0 0.0 010 / 181011.5 -1.6-4.9
2019-Apr-12 12:00N 50°36' W 096°54'0 0.0 010 / 171012.2 -1.5-4.0
2019-Apr-12 11:00N 50°36' W 096°54'   010 / 161012.3 -1.2-4.1

Dump ship's entire track history